Time,TemperatureF,DewpointF,PressureIn,WindDirection,WindDirectionDegrees,WindSpeedMPH,WindSpeedGustMPH,Humidity,HourlyPrecipIn,Conditions,Clouds,dailyrainin,SolarRadiationWatts/m^2,SoftwareType,DateUTC
2013-02-05 00:21:00,50.0,29.0,-100.00,NNE,18,7.0,10.0,45,0.00,,,0.00,0.000000,,2013-02-05 08:21:00,
2013-02-05 00:31:00,50.0,29.0,-100.00,NNE,18,7.0,10.0,45,0.00,,,0.00,0.000000,,2013-02-05 08:31:00,
2013-02-05 00:41:00,50.0,29.0,-100.00,NNE,18,7.0,10.0,45,0.00,,,0.00,0.000000,,2013-02-05 08:41:00,
2013-02-05 00:52:00,50.0,29.0,-100.00,NNE,18,7.0,10.0,45,0.00,,,0.00,0.000000,,2013-02-05 08:52:00,
2013-02-05 01:21:00,48.0,31.0,-100.00,WSW,242,3.0,12.0,51,0.00,,,0.00,0.000000,,2013-02-05 09:21:00,
2013-02-05 01:31:00,48.0,31.0,-100.00,WSW,242,3.0,12.0,51,0.00,,,0.00,0.000000,,2013-02-05 09:31:00,
2013-02-05 01:42:00,48.0,31.0,-100.00,WSW,242,3.0,12.0,51,0.00,,,0.00,0.000000,,2013-02-05 09:42:00,
2013-02-05 01:51:00,48.0,31.0,-100.00,WSW,242,3.0,12.0,51,0.00,,,0.00,0.000000,,2013-02-05 09:51:00,
2013-02-05 02:21:00,46.0,31.0,-100.00,West,262,0.0,10.0,56,0.00,,,0.00,0.000000,,2013-02-05 10:21:00,
2013-02-05 02:31:00,46.0,31.0,-100.00,West,262,0.0,10.0,56,0.00,,,0.00,0.000000,,2013-02-05 10:31:00,
2013-02-05 02:42:00,46.0,31.0,-100.00,West,262,0.0,10.0,56,0.00,,,0.00,0.000000,,2013-02-05 10:42:00,
2013-02-05 02:52:00,46.0,31.0,-100.00,West,262,0.0,10.0,56,0.00,,,0.00,0.000000,,2013-02-05 10:52:00,
2013-02-05 03:22:00,44.0,28.0,-100.00,NNE,17,7.0,12.0,54,0.00,,,0.00,0.000000,,2013-02-05 11:22:00,
2013-02-05 03:32:00,44.0,28.0,-100.00,NNE,17,7.0,12.0,54,0.00,,,0.00,0.000000,,2013-02-05 11:32:00,
2013-02-05 03:41:00,44.0,28.0,-100.00,NNE,17,7.0,12.0,54,0.00,,,0.00,0.000000,,2013-02-05 11:41:00,
2013-02-05 03:52:00,44.0,28.0,-100.00,NNE,17,7.0,12.0,54,0.00,,,0.00,0.000000,,2013-02-05 11:52:00,
2013-02-05 04:21:00,43.0,28.0,-100.00,North,8,3.0,12.0,55,0.00,,,0.00,0.000000,,2013-02-05 12:21:00,
2013-02-05 04:32:00,43.0,28.0,-100.00,North,8,3.0,12.0,55,0.00,,,0.00,0.000000,,2013-02-05 12:32:00,
2013-02-05 04:41:00,43.0,28.0,-100.00,North,8,3.0,12.0,55,0.00,,,0.00,0.000000,,2013-02-05 12:41:00,
2013-02-05 04:52:00,43.0,28.0,-100.00,North,8,3.0,12.0,55,0.00,,,0.00,0.000000,,2013-02-05 12:52:00,
2013-02-05 05:21:00,43.0,30.0,-100.00,NE,47,0.0,7.0,60,0.00,,,0.00,0.000000,,2013-02-05 13:21:00,
2013-02-05 05:31:00,43.0,30.0,-100.00,NE,47,0.0,7.0,60,0.00,,,0.00,0.000000,,2013-02-05 13:31:00,
2013-02-05 05:42:00,43.0,30.0,-100.00,NE,47,0.0,7.0,60,0.00,,,0.00,0.000000,,2013-02-05 13:42:00,
2013-02-05 05:51:00,43.0,30.0,-100.00,NE,47,0.0,7.0,60,0.00,,,0.00,0.000000,,2013-02-05 13:51:00,
2013-02-05 06:21:00,42.0,31.0,-100.00,South,176,0.0,4.0,65,0.00,,,0.00,0.000000,,2013-02-05 14:21:00,
2013-02-05 06:31:00,42.0,31.0,-100.00,South,176,0.0,4.0,65,0.00,,,0.00,0.000000,,2013-02-05 14:31:00,
2013-02-05 06:42:00,42.0,31.0,-100.00,South,176,0.0,4.0,65,0.00,,,0.00,0.000000,,2013-02-05 14:42:00,
2013-02-05 06:52:00,42.0,31.0,-100.00,South,176,0.0,4.0,65,0.00,,,0.00,0.000000,,2013-02-05 14:52:00,
2013-02-05 07:21:00,41.0,32.0,-100.00,SSE,160,0.0,4.0,69,0.00,,,0.00,0.000000,,2013-02-05 15:21:00,
2013-02-05 07:32:00,41.0,32.0,-100.00,SSE,160,0.0,4.0,69,0.00,,,0.00,0.000000,,2013-02-05 15:32:00,
2013-02-05 07:41:00,41.0,32.0,-100.00,SSE,160,0.0,4.0,69,0.00,,,0.00,0.000000,,2013-02-05 15:41:00,
2013-02-05 07:51:00,41.0,32.0,-100.00,SSE,160,0.0,4.0,69,0.00,,,0.00,0.000000,,2013-02-05 15:51:00,
2013-02-05 08:22:00,44.0,33.0,-100.00,SSE,154,0.0,6.0,64,0.00,,,-99.99,45.000000,,2013-02-05 16:22:00,
2013-02-05 08:32:00,44.0,33.0,-100.00,SSE,154,0.0,6.0,64,0.00,,,-99.99,45.000000,,2013-02-05 16:32:00,
2013-02-05 08:41:00,44.0,33.0,-100.00,SSE,154,0.0,6.0,64,0.00,,,-99.99,45.000000,,2013-02-05 16:41:00,
2013-02-05 08:51:00,44.0,33.0,-100.00,SSE,154,0.0,6.0,64,0.00,,,-99.99,45.000000,,2013-02-05 16:51:00,
2013-02-05 09:21:00,46.0,32.0,-100.00,SSE,156,6.0,8.0,59,0.00,,,-99.99,294.000000,,2013-02-05 17:21:00,
2013-02-05 09:32:00,46.0,32.0,-100.00,SSE,156,6.0,8.0,59,0.00,,,-99.99,294.000000,,2013-02-05 17:32:00,
2013-02-05 09:42:00,46.0,32.0,-100.00,SSE,156,6.0,8.0,59,0.00,,,-99.99,294.000000,,2013-02-05 17:42:00,
2013-02-05 09:52:00,46.0,32.0,-100.00,SSE,156,6.0,8.0,59,0.00,,,-99.99,294.000000,,2013-02-05 17:52:00,
2013-02-05 10:21:00,55.0,33.0,-100.00,SSW,195,3.0,9.0,44,0.00,,,0.00,490.000000,,2013-02-05 18:21:00,
2013-02-05 10:32:00,55.0,33.0,-100.00,SSW,195,3.0,9.0,44,0.00,,,0.00,490.000000,,2013-02-05 18:32:00,
2013-02-05 10:42:00,55.0,33.0,-100.00,SSW,195,3.0,9.0,44,0.00,,,0.00,490.000000,,2013-02-05 18:42:00,
2013-02-05 10:51:00,55.0,33.0,-100.00,SSW,195,3.0,9.0,44,0.00,,,0.00,490.000000,,2013-02-05 18:51:00,
2013-02-05 11:21:00,63.0,30.0,-100.00,SW,216,1.0,6.0,29,0.00,,,0.00,642.000000,,2013-02-05 19:21:00,
2013-02-05 11:31:00,63.0,30.0,-100.00,SW,216,1.0,6.0,29,0.00,,,0.00,642.000000,,2013-02-05 19:31:00,
2013-02-05 11:42:00,63.0,30.0,-100.00,SW,216,1.0,6.0,29,0.00,,,0.00,642.000000,,2013-02-05 19:42:00,
2013-02-05 11:51:00,63.0,30.0,-100.00,SW,216,1.0,6.0,29,0.00,,,0.00,642.000000,,2013-02-05 19:51:00,
2013-02-05 12:21:00,64.0,31.0,-100.00,SSE,167,5.0,8.0,29,0.00,,,0.00,734.000000,,2013-02-05 20:21:00,
2013-02-05 12:32:00,64.0,31.0,-100.00,SSE,167,5.0,8.0,29,0.00,,,0.00,734.000000,,2013-02-05 20:32:00,
2013-02-05 12:41:00,64.0,31.0,-100.00,SSE,167,5.0,8.0,29,0.00,,,0.00,734.000000,,2013-02-05 20:41:00,
2013-02-05 12:52:00,64.0,31.0,-100.00,SSE,167,5.0,8.0,29,0.00,,,0.00,734.000000,,2013-02-05 20:52:00,
2013-02-05 13:21:00,65.0,30.0,-100.00,South,187,6.0,15.0,27,0.00,,,0.00,758.000000,,2013-02-05 21:21:00,
2013-02-05 13:32:00,65.0,30.0,-100.00,South,187,6.0,15.0,27,0.00,,,0.00,758.000000,,2013-02-05 21:32:00,
2013-02-05 13:41:00,65.0,30.0,-100.00,South,187,6.0,15.0,27,0.00,,,0.00,758.000000,,2013-02-05 21:41:00,
2013-02-05 13:51:00,65.0,30.0,-100.00,South,187,6.0,15.0,27,0.00,,,0.00,758.000000,,2013-02-05 21:51:00,
2013-02-05 14:21:00,67.0,28.0,-100.00,NNW,340,5.0,16.0,23,0.00,,,0.00,592.000000,,2013-02-05 22:21:00,
2013-02-05 14:31:00,67.0,28.0,-100.00,NNW,340,5.0,16.0,23,0.00,,,0.00,592.000000,,2013-02-05 22:31:00,
2013-02-05 14:41:00,67.0,28.0,-100.00,NNW,340,5.0,16.0,23,0.00,,,0.00,592.000000,,2013-02-05 22:41:00,
2013-02-05 14:51:00,67.0,28.0,-100.00,NNW,340,5.0,16.0,23,0.00,,,0.00,592.000000,,2013-02-05 22:51:00,
2013-02-05 15:21:00,65.0,20.0,-100.00,North,356,21.0,33.0,18,0.00,,,0.00,439.000000,,2013-02-05 23:21:00,
2013-02-05 15:32:00,65.0,20.0,-100.00,North,356,21.0,33.0,18,0.00,,,0.00,439.000000,,2013-02-05 23:32:00,
2013-02-05 16:21:00,63.0,21.0,-100.00,NNW,336,25.0,34.0,20,0.00,,,0.00,254.000000,,2013-02-06 00:21:00,
2013-02-05 16:32:00,63.0,21.0,-100.00,NNW,336,25.0,34.0,20,0.00,,,0.00,254.000000,,2013-02-06 00:32:00,
2013-02-05 16:42:00,63.0,21.0,-100.00,NNW,336,25.0,34.0,20,0.00,,,0.00,254.000000,,2013-02-06 00:42:00,
2013-02-05 16:52:00,63.0,21.0,-100.00,NNW,336,25.0,34.0,20,0.00,,,0.00,254.000000,,2013-02-06 00:52:00,
2013-02-05 17:21:00,61.0,22.0,-100.00,North,351,16.0,33.0,22,0.00,,,0.00,73.000000,,2013-02-06 01:21:00,
2013-02-05 17:32:00,61.0,22.0,-100.00,North,351,16.0,33.0,22,0.00,,,0.00,73.000000,,2013-02-06 01:32:00,
2013-02-05 18:22:00,60.0,23.0,-100.00,NNW,347,8.0,19.0,24,0.00,,,0.00,7.000000,,2013-02-06 02:22:00,
2013-02-05 18:32:00,60.0,23.0,-100.00,NNW,347,8.0,19.0,24,0.00,,,0.00,7.000000,,2013-02-06 02:32:00,
2013-02-05 19:21:00,59.0,24.0,-100.00,North,358,8.0,19.0,26,0.00,,,0.00,0.000000,,2013-02-06 03:21:00,
2013-02-05 19:32:00,59.0,24.0,-100.00,North,358,8.0,19.0,26,0.00,,,0.00,0.000000,,2013-02-06 03:32:00,
2013-02-05 19:42:00,59.0,24.0,-100.00,North,358,8.0,19.0,26,0.00,,,0.00,0.000000,,2013-02-06 03:42:00,
2013-02-05 19:52:00,59.0,24.0,-100.00,North,358,8.0,19.0,26,0.00,,,0.00,0.000000,,2013-02-06 03:52:00,
2013-02-05 20:21:00,58.0,23.0,-100.00,NNW,328,8.0,19.0,26,0.00,,,0.00,0.000000,,2013-02-06 04:21:00,
2013-02-05 20:31:00,58.0,23.0,-100.00,NNW,328,8.0,19.0,26,0.00,,,0.00,0.000000,,2013-02-06 04:31:00,
2013-02-05 20:41:00,58.0,23.0,-100.00,NNW,328,8.0,19.0,26,0.00,,,0.00,0.000000,,2013-02-06 04:41:00,
2013-02-05 20:51:00,58.0,23.0,-100.00,NNW,328,8.0,19.0,26,0.00,,,0.00,0.000000,,2013-02-06 04:51:00,
2013-02-05 21:22:00,52.0,35.0,-100.00,SSE,168,8.0,14.0,53,0.00,,,0.00,0.000000,,2013-02-06 05:22:00,
2013-02-05 21:31:00,52.0,35.0,-100.00,SSE,168,8.0,14.0,53,0.00,,,0.00,0.000000,,2013-02-06 05:31:00,
2013-02-05 21:41:00,52.0,35.0,-100.00,SSE,168,8.0,14.0,53,0.00,,,0.00,0.000000,,2013-02-06 05:41:00,
2013-02-05 21:52:00,52.0,35.0,-100.00,SSE,168,8.0,14.0,53,0.00,,,0.00,0.000000,,2013-02-06 05:52:00,
2013-02-05 22:21:00,52.0,40.0,-100.00,South,175,12.0,23.0,63,0.00,,,0.00,0.000000,,2013-02-06 06:21:00,
2013-02-05 22:31:00,52.0,40.0,-100.00,South,175,12.0,23.0,63,0.00,,,0.00,0.000000,,2013-02-06 06:31:00,
2013-02-05 22:42:00,52.0,40.0,-100.00,South,175,12.0,23.0,63,0.00,,,0.00,0.000000,,2013-02-06 06:42:00,
2013-02-05 22:51:00,52.0,40.0,-100.00,South,175,12.0,23.0,63,0.00,,,0.00,0.000000,,2013-02-06 06:51:00,
2013-02-05 23:21:00,50.0,39.0,-100.00,SSW,211,4.0,26.0,67,0.00,,,0.00,0.000000,,2013-02-06 07:21:00,
2013-02-05 23:32:00,50.0,39.0,-100.00,SSW,211,4.0,26.0,67,0.00,,,0.00,0.000000,,2013-02-06 07:32:00,
2013-02-05 23:41:00,50.0,39.0,-100.00,SSW,211,4.0,26.0,67,0.00,,,0.00,0.000000,,2013-02-06 07:41:00,
2013-02-05 23:51:00,50.0,39.0,-100.00,SSW,211,4.0,26.0,67,0.00,,,0.00,0.000000,,2013-02-06 07:51:00,